createdAt,value
2017-05-19T00:00:17.158Z,17.43
2017-05-19T00:01:28.616Z,17.46
2017-05-19T00:02:39.625Z,17.5
2017-05-19T00:03:50.640Z,17.45
2017-05-19T00:05:01.661Z,17.42
2017-05-19T00:06:12.678Z,17.38
2017-05-19T00:07:24.150Z,17.36
2017-05-19T00:08:35.163Z,17.21
2017-05-19T00:09:46.187Z,17.21
2017-05-19T00:10:57.407Z,17.24
2017-05-19T00:12:08.414Z,17.28
2017-05-19T00:13:19.676Z,17.27
2017-05-19T00:14:30.689Z,17.28
2017-05-19T00:15:41.697Z,17.21
2017-05-19T00:16:52.916Z,17.15
2017-05-19T00:18:03.931Z,17.12
2017-05-19T00:19:14.992Z,17.15
2017-05-19T00:20:26.203Z,17.2
2017-05-19T00:21:37.220Z,17.15
2017-05-19T00:22:48.233Z,17.2
2017-05-19T00:23:59.253Z,17.1
2017-05-19T00:25:10.523Z,17.2
2017-05-19T00:26:21.743Z,17.06
2017-05-19T00:27:32.764Z,17.13
2017-05-19T00:28:43.794Z,17.1
2017-05-19T00:29:54.801Z,17.12
2017-05-19T00:31:05.860Z,17.03
2017-05-19T00:32:16.870Z,17.15
2017-05-19T00:33:28.082Z,17.09
2017-05-19T00:34:39.308Z,17.12
2017-05-19T00:35:50.311Z,17.07
2017-05-19T00:37:01.378Z,17.09
2017-05-19T00:38:12.594Z,17.12
2017-05-19T00:39:23.615Z,17.13
2017-05-19T00:40:34.631Z,17.03
2017-05-19T00:41:45.719Z,17.02
2017-05-19T00:42:56.983Z,17.09
2017-05-19T00:44:08.008Z,16.99
2017-05-19T00:45:19.016Z,17.02
2017-05-19T00:46:30.038Z,17.02
2017-05-19T00:47:41.056Z,17.02
2017-05-19T00:48:52.121Z,17.12
2017-05-19T00:50:03.146Z,17.21
2017-05-19T00:51:14.151Z,17.15
2017-05-19T00:52:25.174Z,17.12
2017-05-19T00:53:36.203Z,17.12
2017-05-19T00:54:47.275Z,17.15
2017-05-19T00:55:58.281Z,17.17
2017-05-19T00:57:09.294Z,17.09
2017-05-19T00:58:20.311Z,17.2
2017-05-19T00:59:31.323Z,17.3
2017-05-19T01:00:42.336Z,17.15
2017-05-19T01:01:53.350Z,17.22
2017-05-19T01:03:04.384Z,17.22
2017-05-19T01:04:15.466Z,17.27
2017-05-19T01:05:26.543Z,17.3
2017-05-19T01:06:37.564Z,17.12
2017-05-19T01:07:48.782Z,17.13
2017-05-19T01:08:59.802Z,17.24
2017-05-19T01:10:11.021Z,17.12
2017-05-19T01:11:22.079Z,17.15
2017-05-19T01:12:33.089Z,17.12
2017-05-19T01:13:44.099Z,17.15
2017-05-19T01:14:55.125Z,17.25
2017-05-19T01:16:06.131Z,17.22
2017-05-19T01:17:17.194Z,17.21
2017-05-19T01:18:28.419Z,17.25
2017-05-19T01:19:39.424Z,17.25
2017-05-19T01:20:50.642Z,17.13
2017-05-19T01:22:01.664Z,17.27
2017-05-19T01:23:12.727Z,17.25
2017-05-19T01:24:23.743Z,17.15
2017-05-19T01:25:34.739Z,17.18
2017-05-19T01:26:45.759Z,17.12
2017-05-19T01:27:56.975Z,17.13
2017-05-19T01:29:08.025Z,17.12
2017-05-19T01:30:19.053Z,17.13
2017-05-19T01:31:30.061Z,17.09
2017-05-19T01:32:41.077Z,17.17
2017-05-19T01:33:52.284Z,17.12
2017-05-19T01:35:03.355Z,17.13
2017-05-19T01:36:14.380Z,17.12
2017-05-19T01:37:25.393Z,17.21
2017-05-19T01:38:36.421Z,17.21
2017-05-19T01:39:47.441Z,17.12
2017-05-19T01:40:58.464Z,17.18
2017-05-19T01:42:09.474Z,17.2
2017-05-19T01:43:20.502Z,17.18
2017-05-19T01:44:31.523Z,17.25
2017-05-19T01:45:42.592Z,17.3
2017-05-19T01:46:53.606Z,17.3
2017-05-19T01:48:04.636Z,17.27
2017-05-19T01:49:15.676Z,17.24
2017-05-19T01:50:26.686Z,17.31
2017-05-19T01:51:37.758Z,17.24
2017-05-19T01:52:48.789Z,17.25
2017-05-19T01:53:59.815Z,17.24
2017-05-19T01:55:10.831Z,17.32
2017-05-19T01:56:21.853Z,17.31
2017-05-19T01:57:32.987Z,17.27
2017-05-19T01:58:44.009Z,17.31
2017-05-19T01:59:55.235Z,17.27
2017-05-19T02:01:06.253Z,17.27
2017-05-19T02:02:17.264Z,17.2
2017-05-19T02:03:28.342Z,17.27
2017-05-19T02:04:39.576Z,17.28
2017-05-19T02:05:50.597Z,17.22
2017-05-19T02:07:01.622Z,17.2
2017-05-19T02:08:12.636Z,17.25
2017-05-19T02:09:23.701Z,17.28
2017-05-19T02:10:34.711Z,17.31
2017-05-19T02:11:45.734Z,17.36
2017-05-19T02:12:56.746Z,17.43
2017-05-19T02:14:07.775Z,17.36
2017-05-19T02:15:18.839Z,17.31
2017-05-19T02:16:29.846Z,17.25
2017-05-19T02:17:41.065Z,17.31
2017-05-19T02:18:52.277Z,17.3
2017-05-19T02:20:03.301Z,17.4
2017-05-19T02:21:14.369Z,17.36
2017-05-19T02:22:25.377Z,17.36
2017-05-19T02:23:36.391Z,17.36
2017-05-19T02:24:47.415Z,17.31
2017-05-19T02:25:58.427Z,17.35
2017-05-19T02:27:09.499Z,17.2
2017-05-19T02:28:20.510Z,17.28
2017-05-19T02:29:31.540Z,17.28
2017-05-19T02:30:42.554Z,17.17
2017-05-19T02:31:53.571Z,17.25
2017-05-19T02:33:04.631Z,17.18
2017-05-19T02:34:15.645Z,17.24
2017-05-19T02:35:26.871Z,17.27
2017-05-19T02:36:37.889Z,17.31
2017-05-19T02:37:48.914Z,17.21
2017-05-19T02:38:59.980Z,17.24
2017-05-19T02:40:11.049Z,17.13
2017-05-19T02:41:22.064Z,17.22
2017-05-19T02:42:33.281Z,17.25
2017-05-19T02:43:44.543Z,17.13
2017-05-19T02:44:55.839Z,17.07
2017-05-19T02:46:06.863Z,17.06
2017-05-19T02:47:18.094Z,17.06
2017-05-19T02:48:29.304Z,17.1
2017-05-19T02:49:40.365Z,17.12
2017-05-19T02:50:51.369Z,17.12
2017-05-19T02:52:02.387Z,17.1
2017-05-19T02:53:13.410Z,17.15
2017-05-19T02:54:24.629Z,17.13
2017-05-19T02:55:35.908Z,17.07
2017-05-19T02:56:46.921Z,17.05
2017-05-19T02:57:57.935Z,17
2017-05-19T02:59:09.154Z,17.02
2017-05-19T03:00:20.374Z,17.03
2017-05-19T03:01:31.844Z,17.02
2017-05-19T03:02:42.866Z,16.95
2017-05-19T03:03:53.873Z,16.94
2017-05-19T03:05:04.891Z,16.99
2017-05-19T03:06:15.896Z,16.97
2017-05-19T03:07:26.965Z,16.95
2017-05-19T03:08:38.199Z,16.88
2017-05-19T03:09:49.267Z,16.94
2017-05-19T03:11:00.289Z,16.92
2017-05-19T03:12:11.305Z,16.92
2017-05-19T03:13:22.376Z,16.82
2017-05-19T03:14:33.383Z,16.8
2017-05-19T03:15:44.613Z,16.8
2017-05-19T03:16:55.836Z,16.73
2017-05-19T03:18:06.839Z,16.8
2017-05-19T03:19:17.901Z,16.74
2017-05-19T03:20:28.981Z,16.67
2017-05-19T03:21:40.197Z,16.72
2017-05-19T03:22:51.425Z,16.74
2017-05-19T03:24:02.453Z,16.84
2017-05-19T03:25:13.911Z,16.8
2017-05-19T03:26:24.916Z,16.8
2017-05-19T03:27:36.132Z,16.85
2017-05-19T03:28:47.152Z,16.84
2017-05-19T03:29:58.170Z,16.87
2017-05-19T03:31:09.438Z,16.85
2017-05-19T03:32:20.456Z,16.88
2017-05-19T03:33:31.479Z,16.85
2017-05-19T03:34:42.548Z,16.82
2017-05-19T03:35:53.558Z,16.87
2017-05-19T03:37:04.628Z,16.81
2017-05-19T03:38:15.643Z,16.88
2017-05-19T03:39:26.662Z,16.88
2017-05-19T03:40:37.674Z,16.92
2017-05-19T03:41:48.676Z,16.9
2017-05-19T03:42:59.749Z,16.95
2017-05-19T03:44:10.769Z,16.92
2017-05-19T03:45:21.791Z,16.97
2017-05-19T03:46:32.807Z,16.91
2017-05-19T03:47:44.028Z,16.92
2017-05-19T03:48:55.090Z,16.92
2017-05-19T03:50:06.096Z,16.95
2017-05-19T03:51:17.316Z,16.9
2017-05-19T03:52:28.336Z,16.94
2017-05-19T03:53:39.358Z,16.95
2017-05-19T03:54:50.429Z,16.95
2017-05-19T03:56:01.456Z,16.91
2017-05-19T03:57:12.458Z,16.94
2017-05-19T03:58:23.472Z,16.95
2017-05-19T03:59:34.698Z,16.99
2017-05-19T04:00:45.712Z,17
2017-05-19T04:01:56.741Z,17.02
2017-05-19T04:03:07.960Z,17.02
2017-05-19T04:04:18.967Z,17.05
2017-05-19T04:05:30.031Z,17.06
2017-05-19T04:06:41.073Z,17.07
2017-05-19T04:07:52.098Z,17.06
2017-05-19T04:09:03.135Z,17.06
2017-05-19T04:10:14.348Z,17.07
2017-05-19T04:11:25.609Z,17.09
2017-05-19T04:12:36.699Z,17.12
2017-05-19T04:13:47.718Z,17.13
2017-05-19T04:14:58.732Z,17.18
2017-05-19T04:16:09.752Z,17.24
2017-05-19T04:17:20.809Z,17.25
2017-05-19T04:18:31.821Z,17.28
2017-05-19T04:19:43.035Z,17.24
2017-05-19T04:20:54.065Z,17.21
2017-05-19T04:22:05.085Z,17.25
2017-05-19T04:23:16.143Z,17.28
2017-05-19T04:24:27.158Z,17.3
2017-05-19T04:25:38.185Z,17.32
2017-05-19T04:26:49.216Z,17.32
2017-05-19T04:28:00.230Z,17.28
2017-05-19T04:29:11.490Z,17.31
2017-05-19T04:30:22.713Z,17.36
2017-05-19T04:31:33.744Z,17.35
2017-05-19T04:32:44.760Z,17.38
2017-05-19T04:33:55.985Z,17.38
2017-05-19T04:35:07.049Z,17.38
2017-05-19T04:36:18.260Z,17.38
2017-05-19T04:37:29.273Z,17.38
2017-05-19T04:38:40.295Z,17.45
2017-05-19T04:39:51.719Z,17.42
2017-05-19T04:41:02.947Z,17.46
2017-05-19T04:42:14.155Z,17.45
2017-05-19T04:43:25.164Z,17.46
2017-05-19T04:44:36.187Z,17.39
2017-05-19T04:45:47.246Z,17.42
2017-05-19T04:46:58.466Z,17.42
2017-05-19T04:48:09.491Z,17.43
2017-05-19T04:49:20.500Z,17.31
2017-05-19T04:50:31.506Z,17.42
2017-05-19T04:51:42.574Z,17.36
2017-05-19T04:52:53.593Z,17.4
2017-05-19T04:54:04.601Z,17.4
2017-05-19T04:55:15.603Z,17.43
2017-05-19T04:56:26.612Z,17.42
2017-05-19T04:57:37.676Z,17.49
2017-05-19T04:58:48.900Z,17.45
2017-05-19T04:59:59.929Z,17.49
2017-05-19T05:01:11.148Z,17.47
2017-05-19T05:02:22.166Z,17.46
2017-05-19T05:03:33.235Z,17.46
2017-05-19T05:04:44.249Z,17.49
2017-05-19T05:05:55.255Z,17.46
2017-05-19T05:07:06.272Z,17.5
2017-05-19T05:08:17.295Z,17.52
2017-05-19T05:09:28.363Z,17.49
2017-05-19T05:10:39.382Z,17.49
2017-05-19T05:11:50.396Z,17.54
2017-05-19T05:13:01.420Z,17.5
2017-05-19T05:14:12.442Z,17.45
2017-05-19T05:15:23.561Z,17.45
2017-05-19T05:16:34.578Z,17.47
2017-05-19T05:17:45.602Z,17.52
2017-05-19T05:18:56.611Z,17.57
2017-05-19T05:20:07.645Z,17.57
2017-05-19T05:21:18.699Z,17.6
2017-05-19T05:22:29.706Z,17.55
2017-05-19T05:23:40.720Z,17.55
2017-05-19T05:24:51.739Z,17.52
2017-05-19T05:26:02.751Z,17.57
2017-05-19T05:27:13.819Z,17.6
2017-05-19T05:28:24.895Z,17.52
2017-05-19T05:29:35.918Z,17.47
2017-05-19T05:30:46.921Z,17.57
2017-05-19T05:31:57.940Z,17.58
2017-05-19T05:33:09.015Z,17.55
2017-05-19T05:34:20.043Z,17.47
2017-05-19T05:35:31.048Z,17.52
2017-05-19T05:36:42.256Z,17.57
2017-05-19T05:37:53.275Z,17.52
2017-05-19T05:39:04.350Z,17.45
2017-05-19T05:40:15.768Z,17.62
2017-05-19T05:41:26.789Z,17.49
2017-05-19T05:42:37.803Z,17.5
2017-05-19T05:43:48.823Z,17.58
2017-05-19T05:44:59.902Z,17.55
2017-05-19T05:46:10.927Z,17.54
2017-05-19T05:47:21.940Z,17.57
2017-05-19T05:48:32.961Z,17.57
2017-05-19T05:49:44.181Z,17.5
2017-05-19T05:50:55.195Z,17.43
2017-05-19T05:52:06.260Z,17.47
2017-05-19T05:53:17.267Z,17.47
2017-05-19T05:54:28.288Z,17.39
2017-05-19T05:55:39.341Z,17.43
2017-05-19T05:56:50.362Z,17.4
2017-05-19T05:58:01.365Z,17.32
2017-05-19T05:59:12.381Z,17.35
2017-05-19T06:00:23.412Z,17.39
2017-05-19T06:01:34.485Z,17.39
2017-05-19T06:02:45.702Z,17.36
2017-05-19T06:03:56.709Z,17.35
2017-05-19T06:05:07.724Z,17.38
2017-05-19T06:06:18.930Z,17.36
2017-05-19T06:07:30.014Z,17.31
2017-05-19T06:08:41.040Z,17.4
2017-05-19T06:09:52.062Z,17.36
2017-05-19T06:11:03.080Z,17.3
2017-05-19T06:12:14.158Z,17.42
2017-05-19T06:13:25.214Z,17.32
2017-05-19T06:14:36.237Z,17.35
2017-05-19T06:15:47.448Z,17.27
2017-05-19T06:16:58.447Z,17.35
2017-05-19T06:18:09.671Z,17.36
2017-05-19T06:19:20.736Z,17.28
2017-05-19T06:20:31.751Z,17.27
2017-05-19T06:21:42.765Z,17.25
2017-05-19T06:22:53.781Z,17.3
2017-05-19T06:24:04.816Z,17.27
2017-05-19T06:25:16.070Z,17.25
2017-05-19T06:26:27.092Z,17.3
2017-05-19T06:27:38.114Z,17.25
2017-05-19T06:28:49.322Z,17.21
2017-05-19T06:30:00.541Z,17.27
2017-05-19T06:31:11.599Z,17.25
2017-05-19T06:32:22.628Z,17.3
2017-05-19T06:33:33.652Z,17.31
2017-05-19T06:34:44.697Z,17.28
2017-05-19T06:35:55.710Z,17.31
2017-05-19T06:37:06.773Z,17.32
2017-05-19T06:38:17.789Z,17.28
2017-05-19T06:39:28.792Z,17.35
2017-05-19T06:40:39.805Z,17.28
2017-05-19T06:41:50.825Z,17.36
2017-05-19T06:43:01.899Z,17.38
2017-05-19T06:44:13.119Z,17.42
2017-05-19T06:45:24.176Z,17.43
2017-05-19T06:46:35.184Z,17.43
2017-05-19T06:47:46.204Z,17.43
2017-05-19T06:48:57.262Z,17.45
2017-05-19T06:50:08.471Z,17.46
2017-05-19T06:51:19.493Z,17.43
2017-05-19T06:52:30.496Z,17.43
2017-05-19T06:53:41.516Z,17.46
2017-05-19T06:54:52.595Z,17.4
2017-05-19T06:56:03.624Z,17.42
2017-05-19T06:57:14.635Z,17.5
2017-05-19T06:58:25.708Z,17.39
2017-05-19T06:59:36.728Z,17.45
2017-05-19T07:00:47.741Z,17.52
2017-05-19T07:01:58.747Z,17.5
2017-05-19T07:03:09.761Z,17.45
2017-05-19T07:04:20.781Z,17.5
2017-05-19T07:05:32.053Z,17.5
2017-05-19T07:06:43.079Z,17.49
2017-05-19T07:07:54.088Z,17.63
2017-05-19T07:09:05.099Z,17.52
2017-05-19T07:10:16.317Z,17.63
2017-05-19T07:11:27.576Z,17.57
2017-05-19T07:12:38.603Z,17.57
2017-05-19T07:13:49.632Z,17.5
2017-05-19T07:15:00.634Z,17.55
2017-05-19T07:16:11.641Z,17.66
2017-05-19T07:17:22.699Z,17.57
2017-05-19T07:18:33.703Z,17.58
2017-05-19T07:19:44.731Z,17.66
2017-05-19T07:20:55.742Z,17.71
2017-05-19T07:22:06.765Z,17.71
2017-05-19T07:23:18.034Z,17.74
2017-05-19T07:24:29.054Z,17.81
2017-05-19T07:25:40.082Z,17.8
2017-05-19T07:26:51.298Z,17.83
2017-05-19T07:28:02.306Z,17.92
2017-05-19T07:29:13.590Z,17.95
2017-05-19T07:30:24.615Z,18.01
2017-05-19T07:31:35.684Z,17.99
2017-05-19T07:32:46.698Z,18.02
2017-05-19T07:33:57.714Z,18.01
2017-05-19T07:35:08.771Z,18.02
2017-05-19T07:36:19.787Z,18.11
2017-05-19T07:37:30.809Z,18.17
2017-05-19T07:38:42.236Z,18.17
2017-05-19T07:39:53.254Z,18.21
2017-05-19T07:41:04.327Z,18.2
2017-05-19T07:42:15.340Z,18.14
2017-05-19T07:43:26.362Z,18.14
2017-05-19T07:44:37.384Z,18.14
2017-05-19T07:45:48.387Z,18.1
2017-05-19T07:46:59.765Z,18.19
2017-05-19T07:48:10.776Z,18.1
2017-05-19T07:49:21.795Z,17.98
2017-05-19T07:50:32.811Z,17.9
2017-05-19T07:51:43.824Z,17.87
2017-05-19T07:52:55.283Z,17.94
2017-05-19T07:54:06.356Z,17.96
2017-05-19T07:55:17.563Z,17.87
2017-05-19T07:56:28.574Z,17.71
2017-05-19T07:57:39.603Z,17.69
2017-05-19T07:58:50.685Z,17.74
2017-05-19T08:00:01.704Z,17.65
2017-05-19T08:01:12.912Z,17.66
2017-05-19T08:02:23.921Z,17.6
2017-05-19T08:03:34.938Z,17.55
2017-05-19T08:04:46.003Z,17.49
2017-05-19T08:05:57.229Z,17.36
2017-05-19T08:07:08.246Z,17.27
2017-05-19T08:08:19.266Z,17.1
2017-05-19T08:09:30.333Z,17.07
2017-05-19T08:10:41.554Z,17.13
2017-05-19T08:11:52.765Z,17.13
2017-05-19T08:13:03.782Z,16.94
2017-05-19T08:14:14.816Z,16.95
2017-05-19T08:15:25.887Z,16.8
2017-05-19T08:16:36.898Z,16.82
2017-05-19T08:17:48.121Z,16.94
2017-05-19T08:18:59.125Z,16.9
2017-05-19T08:20:10.336Z,16.97
2017-05-19T08:21:21.410Z,16.91
2017-05-19T08:22:32.425Z,16.97
2017-05-19T08:23:43.675Z,16.92
2017-05-19T08:24:54.697Z,17.02
2017-05-19T08:26:05.732Z,16.94
2017-05-19T08:27:16.986Z,16.9
2017-05-19T08:28:28.005Z,16.88
2017-05-19T08:29:39.037Z,16.94
2017-05-19T08:30:50.047Z,16.84
2017-05-19T08:32:01.049Z,16.81
2017-05-19T08:33:12.119Z,16.7
2017-05-19T08:34:23.141Z,16.73
2017-05-19T08:35:34.154Z,16.8
2017-05-19T08:36:45.572Z,16.69
2017-05-19T08:37:56.782Z,16.72
2017-05-19T08:39:08.049Z,16.67
2017-05-19T08:40:19.062Z,16.67
2017-05-19T08:41:30.070Z,16.67
2017-05-19T08:42:41.090Z,16.72
2017-05-19T08:43:52.102Z,16.59
2017-05-19T08:45:03.364Z,16.7
2017-05-19T08:46:14.389Z,16.7
2017-05-19T08:47:25.399Z,16.77
2017-05-19T08:48:36.402Z,16.81
2017-05-19T08:49:47.424Z,16.69
2017-05-19T08:50:58.435Z,16.8
2017-05-19T08:52:09.441Z,16.76
2017-05-19T08:53:20.462Z,16.81
2017-05-19T08:54:31.668Z,16.85
2017-05-19T08:55:42.937Z,16.88
2017-05-19T08:56:53.948Z,16.92
2017-05-19T08:58:04.957Z,16.9
2017-05-19T08:59:16.371Z,16.97
2017-05-19T09:00:27.398Z,16.87
2017-05-19T09:01:38.646Z,16.81
2017-05-19T09:02:50.067Z,16.8
2017-05-19T09:04:01.077Z,16.77
2017-05-19T09:05:12.132Z,16.65
2017-05-19T09:06:23.146Z,16.69
2017-05-19T09:07:34.221Z,16.69
2017-05-19T09:08:45.450Z,16.65
2017-05-19T09:09:56.463Z,16.62
2017-05-19T09:11:07.479Z,16.55
2017-05-19T09:12:18.693Z,16.58
2017-05-19T09:13:29.762Z,16.69
2017-05-19T09:14:40.789Z,16.55
2017-05-19T09:15:51.818Z,16.65
2017-05-19T09:17:02.832Z,16.57
2017-05-19T09:18:13.833Z,16.65
2017-05-19T09:19:24.903Z,16.54
2017-05-19T09:20:36.322Z,16.45
2017-05-19T09:21:47.337Z,16.51
2017-05-19T09:22:58.535Z,16.45
2017-05-19T09:24:09.551Z,16.52
2017-05-19T09:25:20.821Z,16.52
2017-05-19T09:26:32.245Z,16.59
2017-05-19T09:27:43.255Z,16.62
2017-05-19T09:28:54.262Z,16.65
2017-05-19T09:30:05.276Z,16.59
2017-05-19T09:31:16.355Z,16.58
2017-05-19T09:32:27.360Z,16.65
2017-05-19T09:33:38.375Z,16.65
2017-05-19T09:34:49.395Z,16.65
2017-05-19T09:36:00.466Z,16.69
2017-05-19T09:37:11.523Z,16.63
2017-05-19T09:38:22.548Z,16.62
2017-05-19T09:39:33.559Z,16.65
2017-05-19T09:40:44.569Z,16.67
2017-05-19T09:41:55.578Z,16.63
2017-05-19T09:43:06.652Z,16.65
2017-05-19T09:44:17.668Z,16.65
2017-05-19T09:45:28.689Z,16.62
2017-05-19T09:46:39.702Z,16.7
2017-05-19T09:47:50.707Z,16.73
2017-05-19T09:49:01.760Z,16.72
2017-05-19T09:50:12.807Z,16.8
2017-05-19T09:51:23.817Z,16.74
2017-05-19T09:52:34.833Z,16.8
2017-05-19T09:53:45.857Z,16.8
2017-05-19T09:54:57.114Z,16.84
2017-05-19T09:56:08.128Z,16.74
2017-05-19T09:57:19.143Z,16.82
2017-05-19T09:58:30.165Z,16.8
2017-05-19T09:59:41.211Z,16.8
2017-05-19T10:00:52.229Z,16.77
2017-05-19T10:02:03.243Z,16.84
2017-05-19T10:03:14.467Z,16.91
2017-05-19T10:04:25.470Z,16.85
2017-05-19T10:05:36.730Z,16.8
2017-05-19T10:06:47.746Z,16.85
2017-05-19T10:07:58.761Z,16.85
2017-05-19T10:09:09.778Z,16.91
2017-05-19T10:10:21.000Z,16.97
2017-05-19T10:11:32.265Z,17.03
2017-05-19T10:12:43.475Z,17.12
2017-05-19T10:13:54.483Z,17.09
2017-05-19T10:15:05.477Z,17.1
2017-05-19T10:16:16.506Z,17.25
2017-05-19T10:17:27.577Z,17.3
2017-05-19T10:18:38.586Z,17.27
2017-05-19T10:19:49.813Z,17.28
2017-05-19T10:21:00.828Z,17.31
2017-05-19T10:22:11.841Z,17.35
2017-05-19T10:23:22.906Z,17.3
2017-05-19T10:24:33.929Z,17.27
2017-05-19T10:25:44.941Z,17.24
2017-05-19T10:26:56.203Z,17.25
2017-05-19T10:28:07.222Z,17.28
2017-05-19T10:29:18.508Z,17.31
2017-05-19T10:30:29.528Z,17.21
2017-05-19T10:31:40.543Z,17.13
2017-05-19T10:32:51.560Z,17.22
2017-05-19T10:34:02.578Z,17.31
2017-05-19T10:35:13.628Z,17.28
2017-05-19T10:36:24.648Z,17.3
2017-05-19T10:37:35.670Z,17.39
2017-05-19T10:38:46.686Z,17.47
2017-05-19T10:39:57.704Z,17.45
2017-05-19T10:41:08.767Z,17.47
2017-05-19T10:42:19.787Z,17.49
2017-05-19T10:43:31.010Z,17.36
2017-05-19T10:44:42.225Z,17.35
2017-05-19T10:45:53.452Z,17.47
2017-05-19T10:47:04.515Z,17.46
2017-05-19T10:48:15.727Z,17.47
2017-05-19T10:49:26.744Z,17.43
2017-05-19T10:50:37.768Z,17.43
2017-05-19T10:51:48.781Z,17.46
2017-05-19T10:52:59.860Z,17.5
2017-05-19T10:54:10.880Z,17.32
2017-05-19T10:55:21.896Z,17.27
2017-05-19T10:56:32.902Z,17.27
2017-05-19T10:57:43.915Z,17.22
2017-05-19T10:58:54.983Z,17.22
2017-05-19T11:00:06.036Z,17.24
2017-05-19T11:01:17.046Z,17.31
2017-05-19T11:02:28.055Z,17.24
2017-05-19T11:03:39.072Z,17.3
2017-05-19T11:04:50.132Z,17.32
2017-05-19T11:06:01.154Z,17.36
2017-05-19T11:07:12.168Z,17.4
2017-05-19T11:08:23.181Z,17.21
2017-05-19T11:09:34.396Z,17.24
2017-05-19T11:10:45.416Z,17.28
2017-05-19T11:11:56.430Z,17.15
2017-05-19T11:13:07.449Z,17.21
2017-05-19T11:14:18.463Z,17.17
2017-05-19T11:15:29.527Z,17.1
2017-05-19T11:16:40.749Z,17.07
2017-05-19T11:17:51.983Z,17.06
2017-05-19T11:19:02.991Z,16.99
2017-05-19T11:20:14.009Z,16.99
2017-05-19T11:21:25.276Z,16.94
2017-05-19T11:22:36.282Z,16.91
2017-05-19T11:23:47.312Z,16.92
2017-05-19T11:24:58.322Z,16.92
2017-05-19T11:26:09.546Z,16.94
2017-05-19T11:27:20.594Z,16.73
2017-05-19T11:28:31.621Z,16.7
2017-05-19T11:29:42.646Z,16.72
2017-05-19T11:30:53.671Z,16.73
2017-05-19T11:32:04.693Z,16.7
2017-05-19T11:33:15.758Z,16.72
2017-05-19T11:34:26.770Z,16.67
2017-05-19T11:35:37.770Z,16.73
2017-05-19T11:36:48.801Z,16.69
2017-05-19T11:37:59.812Z,16.7
2017-05-19T11:39:10.860Z,16.74
2017-05-19T11:40:21.876Z,16.67
2017-05-19T11:41:33.092Z,16.66
2017-05-19T11:42:44.098Z,16.72
2017-05-19T11:43:55.110Z,16.69
2017-05-19T11:45:06.171Z,16.69
2017-05-19T11:46:17.192Z,16.59
2017-05-19T11:47:28.280Z,16.63
2017-05-19T11:48:39.294Z,16.65
2017-05-19T11:49:50.316Z,16.66
2017-05-19T11:51:01.732Z,16.73
2017-05-19T11:52:13.150Z,16.72
2017-05-19T11:53:24.175Z,16.65
2017-05-19T11:54:35.390Z,16.66
2017-05-19T11:55:46.655Z,16.63
2017-05-19T11:56:57.657Z,16.54
2017-05-19T11:58:08.864Z,16.58
2017-05-19T11:59:19.880Z,16.49
2017-05-19T12:00:30.901Z,16.54
2017-05-19T12:01:41.964Z,16.52
2017-05-19T12:02:52.989Z,16.52
2017-05-19T12:04:04.005Z,16.49
2017-05-19T12:05:15.225Z,16.49
2017-05-19T12:06:26.227Z,16.49
2017-05-19T12:07:37.478Z,16.49
2017-05-19T12:08:48.499Z,16.51
2017-05-19T12:09:59.511Z,16.49
2017-05-19T12:11:10.521Z,16.47
2017-05-19T12:12:21.535Z,16.42
2017-05-19T12:13:32.604Z,16.42
2017-05-19T12:14:43.619Z,16.42
2017-05-19T12:15:54.825Z,16.42
2017-05-19T12:17:06.427Z,16.39
2017-05-19T12:18:17.443Z,16.44
2017-05-19T12:19:28.707Z,16.39
2017-05-19T12:20:39.730Z,16.39
2017-05-19T12:21:50.806Z,16.49
2017-05-19T12:23:01.810Z,16.49
2017-05-19T12:24:12.827Z,16.45
2017-05-19T12:25:23.888Z,16.47
2017-05-19T12:26:34.900Z,16.55
2017-05-19T12:27:45.918Z,16.57
2017-05-19T12:28:56.927Z,16.57
2017-05-19T12:30:07.939Z,16.59
2017-05-19T12:31:18.991Z,16.63
2017-05-19T12:32:30.003Z,16.51
2017-05-19T12:33:41.020Z,16.52
2017-05-19T12:34:52.042Z,16.55
2017-05-19T12:36:03.254Z,16.44
2017-05-19T12:37:14.328Z,16.42
2017-05-19T12:38:25.398Z,16.45
2017-05-19T12:39:36.426Z,16.44
2017-05-19T12:40:47.444Z,16.37
2017-05-19T12:41:58.665Z,16.42
2017-05-19T12:43:09.731Z,16.36
2017-05-19T12:44:20.735Z,16.36
2017-05-19T12:45:31.754Z,16.44
2017-05-19T12:46:42.819Z,16.51
2017-05-19T12:47:53.831Z,16.52
2017-05-19T12:49:05.091Z,16.59
2017-05-19T12:50:16.100Z,16.57
2017-05-19T12:51:27.124Z,16.67
2017-05-19T12:52:38.145Z,16.65
2017-05-19T12:53:49.356Z,16.65
2017-05-19T12:55:00.421Z,16.69
2017-05-19T12:56:11.637Z,16.67
2017-05-19T12:57:22.649Z,16.69
2017-05-19T12:58:33.647Z,16.59
2017-05-19T12:59:44.663Z,16.69
2017-05-19T13:00:55.678Z,16.7
2017-05-19T13:02:06.894Z,16.74
2017-05-19T13:03:17.900Z,16.59
2017-05-19T13:04:28.924Z,16.76
2017-05-19T13:05:39.992Z,16.66
2017-05-19T13:06:51.005Z,16.73
2017-05-19T13:08:02.014Z,16.67
2017-05-19T13:09:13.038Z,16.62
2017-05-19T13:10:24.051Z,16.63
2017-05-19T13:11:35.105Z,16.67
2017-05-19T13:12:46.516Z,16.62
2017-05-19T13:13:57.731Z,16.49
2017-05-19T13:15:08.750Z,16.54
2017-05-19T13:16:19.757Z,16.52
2017-05-19T13:17:30.806Z,16.52
2017-05-19T13:18:41.825Z,16.39
2017-05-19T13:19:53.045Z,16.45
2017-05-19T13:21:04.051Z,16.45
2017-05-19T13:22:15.081Z,16.4
2017-05-19T13:23:26.152Z,16.4
2017-05-19T13:24:37.165Z,16.47
2017-05-19T13:25:48.173Z,16.51
2017-05-19T13:26:59.189Z,16.51
2017-05-19T13:28:10.196Z,16.55
2017-05-19T13:29:21.269Z,16.59
2017-05-19T13:30:32.289Z,16.65
2017-05-19T13:31:43.303Z,16.63
2017-05-19T13:32:54.321Z,16.65
2017-05-19T13:34:05.332Z,16.58
2017-05-19T13:35:16.406Z,16.67
2017-05-19T13:36:27.421Z,16.55
2017-05-19T13:37:38.435Z,16.51
2017-05-19T13:38:49.465Z,16.52
2017-05-19T13:40:00.468Z,16.4
2017-05-19T13:41:11.530Z,16.49
2017-05-19T13:42:22.550Z,16.42
2017-05-19T13:43:33.568Z,16.42
2017-05-19T13:44:44.784Z,16.4
2017-05-19T13:45:55.861Z,16.37
2017-05-19T13:47:06.920Z,16.36
2017-05-19T13:48:17.935Z,16.27
2017-05-19T13:49:29.158Z,16.27
2017-05-19T13:50:40.199Z,16.32
2017-05-19T13:51:51.219Z,16.29
2017-05-19T13:53:02.286Z,16.22
2017-05-19T13:54:13.314Z,16.17
2017-05-19T13:55:24.521Z,16.18
2017-05-19T13:56:35.754Z,16.1
2017-05-19T13:57:46.773Z,16.13
2017-05-19T13:58:57.831Z,15.98
2017-05-19T14:00:08.837Z,15.95
2017-05-19T14:01:19.839Z,15.98
2017-05-19T14:02:30.855Z,15.93
2017-05-19T14:03:41.879Z,15.91
2017-05-19T14:04:52.950Z,15.93
2017-05-19T14:06:03.970Z,15.98
2017-05-19T14:07:15.002Z,15.96
2017-05-19T14:08:26.011Z,15.98
2017-05-19T14:09:37.021Z,15.96
2017-05-19T14:10:48.032Z,15.95
2017-05-19T14:11:59.057Z,15.89
2017-05-19T14:13:10.126Z,15.91
2017-05-19T14:14:21.346Z,15.93
2017-05-19T14:15:32.813Z,15.93
2017-05-19T14:16:43.827Z,15.95
2017-05-19T14:17:55.033Z,15.99
2017-05-19T14:19:06.041Z,15.99
2017-05-19T14:20:17.057Z,15.99
2017-05-19T14:21:28.129Z,16.1
2017-05-19T14:22:39.342Z,16.06
2017-05-19T14:23:50.354Z,15.96
2017-05-19T14:25:01.585Z,15.98
2017-05-19T14:26:12.609Z,16
2017-05-19T14:27:23.878Z,15.92
2017-05-19T14:28:34.900Z,15.92
2017-05-19T14:29:45.914Z,15.92
2017-05-19T14:30:56.925Z,15.96
2017-05-19T14:32:07.950Z,15.95
2017-05-19T14:33:19.007Z,15.86
2017-05-19T14:34:30.017Z,15.8
2017-05-19T14:35:41.031Z,15.73
2017-05-19T14:36:52.039Z,15.67
2017-05-19T14:38:03.251Z,15.74
2017-05-19T14:39:14.309Z,15.71
2017-05-19T14:40:25.337Z,15.68
2017-05-19T14:41:36.396Z,15.73
2017-05-19T14:42:47.612Z,15.8
2017-05-19T14:43:58.831Z,15.77
2017-05-19T14:45:09.878Z,15.8
2017-05-19T14:46:20.898Z,15.78
2017-05-19T14:47:32.156Z,15.77
2017-05-19T14:48:43.574Z,15.68
2017-05-19T14:49:54.999Z,15.77
2017-05-19T14:51:06.065Z,15.67
2017-05-19T14:52:17.085Z,15.67
2017-05-19T14:53:28.110Z,15.63
2017-05-19T14:54:39.126Z,15.68
2017-05-19T14:55:50.148Z,15.68
2017-05-19T14:57:01.208Z,15.67
2017-05-19T14:58:12.222Z,15.63
2017-05-19T14:59:23.234Z,15.65
2017-05-19T15:00:34.452Z,15.67
2017-05-19T15:01:45.467Z,15.6
2017-05-19T15:02:56.726Z,15.56
2017-05-19T15:04:07.745Z,15.62
2017-05-19T15:05:18.749Z,15.6
2017-05-19T15:06:29.763Z,15.62
2017-05-19T15:07:40.804Z,15.52
2017-05-19T15:08:52.073Z,15.53
2017-05-19T15:10:03.079Z,15.43
2017-05-19T15:11:14.100Z,15.45
2017-05-19T15:12:25.304Z,15.49
2017-05-19T15:13:36.316Z,15.52
2017-05-19T15:14:47.578Z,15.43
2017-05-19T15:15:58.585Z,15.44
2017-05-19T15:17:09.603Z,15.26
2017-05-19T15:18:20.627Z,15.37
2017-05-19T15:19:31.648Z,15.31